AMX5500 MMSP-MMZO
Flight info
| Callsign | AMX5500 |
|---|---|
| Flight time | 0h 50m |
| Altitude | 30000 |
| Route | ALOMA3A ALOMA DCT HORTA DCT PIRAR DCT GDL DCT EMIGU DCT IRBEK DCT TIDEK |
| Aircraft | B38M/M-SDE1FGHILORVWXY/HB1 |
Departure
| Time | 2026-05-09 04:39 |
|---|---|
| Airport | Ponciano Arriaga International Airport (MMSP) |
Arrival
| Time | 2026-05-09 05:29 |
|---|---|
| Airport | Playa de Oro International Airport (MMZO) |
| Time | Latitude | Longitude | Altitude | Speed | Heading |
|---|---|---|---|---|---|
| 2026-05-09 03:39 | 22.25645 | -100.93609 | 6003 ft | 0 kts | 239° |
| 2026-05-09 04:18 | 22.25647 | -100.93606 | 6003 ft | 2 kts | 239° |
| 2026-05-09 04:18 | 22.25654 | -100.93593 | 6040 ft | 2 kts | 239° |
| 2026-05-09 04:18 | 22.25662 | -100.93579 | 6040 ft | 2 kts | 239° |
| 2026-05-09 04:18 | 22.25670 | -100.93565 | 6040 ft | 1 kts | 259° |
| 2026-05-09 04:19 | 22.25669 | -100.93558 | 6040 ft | 1 kts | 316° |
| 2026-05-09 04:19 | 22.25664 | -100.93555 | 6040 ft | 1 kts | 357° |
| 2026-05-09 04:19 | 22.25657 | -100.93555 | 6039 ft | 1 kts | 332° |
| 2026-05-09 04:19 | 22.25655 | -100.93553 | 6040 ft | 0 kts | 328° |
| 2026-05-09 04:34 | 22.25661 | -100.93558 | 6039 ft | 4 kts | 328° |
| 2026-05-09 04:34 | 22.25704 | -100.93546 | 6039 ft | 10 kts | 44° |
| 2026-05-09 04:35 | 22.25785 | -100.93509 | 6039 ft | 15 kts | 1° |
| 2026-05-09 04:35 | 22.25896 | -100.93510 | 6039 ft | 17 kts | 359° |
| 2026-05-09 04:35 | 22.26021 | -100.93511 | 6039 ft | 19 kts | 1° |
| 2026-05-09 04:35 | 22.26152 | -100.93544 | 6039 ft | 20 kts | 332° |
| 2026-05-09 04:36 | 22.26278 | -100.93617 | 6040 ft | 21 kts | 330° |
| 2026-05-09 04:36 | 22.26411 | -100.93705 | 6039 ft | 23 kts | 329° |
| 2026-05-09 04:36 | 22.26556 | -100.93797 | 6039 ft | 25 kts | 329° |
| 2026-05-09 04:36 | 22.26712 | -100.93897 | 6038 ft | 27 kts | 329° |
| 2026-05-09 04:37 | 22.26876 | -100.94002 | 6039 ft | 28 kts | 329° |
| 2026-05-09 04:37 | 22.27047 | -100.94111 | 6040 ft | 29 kts | 329° |
| 2026-05-09 04:37 | 22.27219 | -100.94221 | 6041 ft | 29 kts | 326° |
| 2026-05-09 04:37 | 22.27297 | -100.94324 | 6041 ft | 11 kts | 311° |
| 2026-05-09 04:38 | 22.27333 | -100.94299 | 6041 ft | 8 kts | 116° |
| 2026-05-09 04:38 | 22.27223 | -100.94222 | 6041 ft | 48 kts | 148° |
| 2026-05-09 04:38 | 22.26724 | -100.93903 | 6038 ft | 117 kts | 149° |
| 2026-05-09 04:38 | 22.25852 | -100.93343 | 6037 ft | 173 kts | 147° |
| 2026-05-09 04:39 | 22.24738 | -100.92593 | 6370 ft | 198 kts | 147° |
| 2026-05-09 04:39 | 22.23513 | -100.91780 | 6886 ft | 216 kts | 147° |
| 2026-05-09 04:39 | 22.22209 | -100.90915 | 7549 ft | 223 kts | 148° |
| 2026-05-09 04:39 | 22.20854 | -100.90023 | 8219 ft | 236 kts | 149° |
| 2026-05-09 04:40 | 22.19397 | -100.89063 | 8801 ft | 253 kts | 149° |
| 2026-05-09 04:40 | 22.17840 | -100.88034 | 9364 ft | 272 kts | 150° |
| 2026-05-09 04:40 | 22.16177 | -100.86935 | 9911 ft | 290 kts | 150° |
| 2026-05-09 04:40 | 22.14413 | -100.85767 | 10411 ft | 306 kts | 150° |
| 2026-05-09 04:41 | 22.12540 | -100.84541 | 10817 ft | 324 kts | 153° |
| 2026-05-09 04:41 | 22.10367 | -100.83795 | 11127 ft | 339 kts | 178° |
| 2026-05-09 04:41 | 22.08006 | -100.84192 | 11436 ft | 353 kts | 204° |
| 2026-05-09 04:41 | 22.05961 | -100.85715 | 11702 ft | 368 kts | 228° |
| 2026-05-09 04:42 | 22.04639 | -100.88126 | 11930 ft | 384 kts | 252° |
| 2026-05-09 04:42 | 22.04333 | -100.91012 | 12228 ft | 397 kts | 274° |
| 2026-05-09 04:42 | 22.05128 | -100.93874 | 12709 ft | 403 kts | 295° |
| 2026-05-09 04:42 | 22.06157 | -100.96683 | 13256 ft | 405 kts | 282° |
| 2026-05-09 04:43 | 22.06637 | -100.99675 | 13842 ft | 405 kts | 282° |
| 2026-05-09 04:43 | 22.07593 | -101.02537 | 14290 ft | 410 kts | 295° |
| 2026-05-09 04:43 | 22.09050 | -101.05206 | 14748 ft | 414 kts | 298° |
| 2026-05-09 04:43 | 22.10149 | -101.08070 | 15148 ft | 415 kts | 282° |
| 2026-05-09 04:44 | 22.10425 | -101.11152 | 15537 ft | 416 kts | 266° |
| 2026-05-09 04:44 | 22.09884 | -101.14173 | 15933 ft | 417 kts | 250° |
| 2026-05-09 04:44 | 22.08575 | -101.17007 | 16280 ft | 420 kts | 235° |
| 2026-05-09 04:44 | 22.06686 | -101.19369 | 16684 ft | 422 kts | 227° |
| 2026-05-09 04:45 | 22.04873 | -101.21918 | 17019 ft | 425 kts | 234° |
| 2026-05-09 04:45 | 22.03138 | -101.24457 | 17391 ft | 427 kts | 233° |
| 2026-05-09 04:45 | 22.01322 | -101.27051 | 17804 ft | 429 kts | 232° |
| 2026-05-09 04:45 | 21.99504 | -101.29617 | 18171 ft | 432 kts | 232° |
| 2026-05-09 04:46 | 21.97690 | -101.32157 | 18494 ft | 434 kts | 232° |
| 2026-05-09 04:46 | 21.95850 | -101.34726 | 18864 ft | 434 kts | 231° |
| 2026-05-09 04:46 | 21.93975 | -101.37340 | 19184 ft | 435 kts | 231° |
| 2026-05-09 04:46 | 21.92145 | -101.39889 | 19488 ft | 437 kts | 231° |
| 2026-05-09 04:47 | 21.90287 | -101.42477 | 19807 ft | 438 kts | 231° |
| 2026-05-09 04:47 | 21.88422 | -101.45072 | 20117 ft | 438 kts | 231° |
| 2026-05-09 04:47 | 21.86552 | -101.47674 | 20417 ft | 439 kts | 231° |
| 2026-05-09 04:47 | 21.84682 | -101.50273 | 20711 ft | 440 kts | 231° |
| 2026-05-09 04:48 | 21.82806 | -101.52879 | 20999 ft | 441 kts | 231° |
| 2026-05-09 04:48 | 21.80922 | -101.55497 | 21274 ft | 442 kts | 231° |
| 2026-05-09 04:48 | 21.79036 | -101.58113 | 21545 ft | 443 kts | 231° |
| 2026-05-09 04:48 | 21.77145 | -101.60737 | 21787 ft | 444 kts | 231° |
| 2026-05-09 04:49 | 21.75250 | -101.63364 | 22044 ft | 445 kts | 231° |
| 2026-05-09 04:49 | 21.73351 | -101.65995 | 22304 ft | 445 kts | 231° |
| 2026-05-09 04:49 | 21.71452 | -101.68627 | 22518 ft | 447 kts | 231° |
| 2026-05-09 04:49 | 21.69544 | -101.71267 | 22757 ft | 447 kts | 231° |
| 2026-05-09 04:50 | 21.67637 | -101.73907 | 22998 ft | 448 kts | 231° |
| 2026-05-09 04:50 | 21.65720 | -101.76557 | 23184 ft | 449 kts | 232° |
| 2026-05-09 04:50 | 21.63799 | -101.79214 | 23386 ft | 451 kts | 231° |
| 2026-05-09 04:50 | 21.61874 | -101.81873 | 23555 ft | 452 kts | 231° |
| 2026-05-09 04:51 | 21.59943 | -101.84540 | 23716 ft | 453 kts | 231° |
| 2026-05-09 04:51 | 21.58003 | -101.87218 | 23865 ft | 455 kts | 231° |
| 2026-05-09 04:51 | 21.56061 | -101.89899 | 24041 ft | 455 kts | 231° |
| 2026-05-09 04:51 | 21.54089 | -101.92618 | 24205 ft | 456 kts | 231° |
| 2026-05-09 04:52 | 21.52135 | -101.95311 | 24348 ft | 458 kts | 231° |
| 2026-05-09 04:52 | 21.50172 | -101.98016 | 24521 ft | 458 kts | 231° |
| 2026-05-09 04:52 | 21.48208 | -102.00721 | 24658 ft | 460 kts | 231° |
| 2026-05-09 04:52 | 21.46239 | -102.03431 | 24817 ft | 461 kts | 231° |
| 2026-05-09 04:53 | 21.44266 | -102.06145 | 24973 ft | 462 kts | 231° |
| 2026-05-09 04:53 | 21.42288 | -102.08864 | 25144 ft | 462 kts | 231° |
| 2026-05-09 04:53 | 21.40309 | -102.11585 | 25287 ft | 464 kts | 231° |
| 2026-05-09 04:53 | 21.38323 | -102.14313 | 25423 ft | 464 kts | 231° |
| 2026-05-09 04:54 | 21.36333 | -102.17045 | 25544 ft | 465 kts | 231° |
| 2026-05-09 04:54 | 21.34343 | -102.19776 | 25664 ft | 466 kts | 231° |
| 2026-05-09 04:54 | 21.32341 | -102.22522 | 25767 ft | 466 kts | 231° |
| 2026-05-09 04:54 | 21.30348 | -102.25254 | 25903 ft | 466 kts | 231° |
| 2026-05-09 04:55 | 21.28350 | -102.27993 | 26064 ft | 466 kts | 231° |
| 2026-05-09 04:55 | 21.26355 | -102.30724 | 26230 ft | 465 kts | 231° |
| 2026-05-09 04:55 | 21.24363 | -102.33452 | 26401 ft | 465 kts | 231° |
| 2026-05-09 04:55 | 21.22367 | -102.36182 | 26572 ft | 464 kts | 231° |
| 2026-05-09 04:56 | 21.20375 | -102.38906 | 26762 ft | 464 kts | 231° |
| 2026-05-09 04:56 | 21.18393 | -102.41616 | 26959 ft | 463 kts | 231° |
| 2026-05-09 04:56 | 21.16403 | -102.44335 | 27171 ft | 462 kts | 231° |
| 2026-05-09 04:56 | 21.14422 | -102.47040 | 27388 ft | 462 kts | 231° |
| 2026-05-09 04:57 | 21.12438 | -102.49748 | 27615 ft | 461 kts | 231° |
| 2026-05-09 04:57 | 21.10461 | -102.52445 | 27850 ft | 460 kts | 231° |
| 2026-05-09 04:57 | 21.08489 | -102.55134 | 28069 ft | 459 kts | 231° |
| 2026-05-09 04:57 | 21.06515 | -102.57826 | 28320 ft | 459 kts | 231° |
| 2026-05-09 04:58 | 21.04543 | -102.60511 | 28574 ft | 458 kts | 231° |
| 2026-05-09 04:58 | 21.02581 | -102.63183 | 28836 ft | 457 kts | 231° |
| 2026-05-09 04:58 | 21.00614 | -102.65861 | 29102 ft | 456 kts | 231° |
| 2026-05-09 04:58 | 20.98653 | -102.68528 | 29385 ft | 456 kts | 231° |
| 2026-05-09 04:59 | 20.96692 | -102.71194 | 29684 ft | 455 kts | 231° |
| 2026-05-09 04:59 | 20.92796 | -102.76489 | 29784 ft | 452 kts | 230° |
| 2026-05-09 05:00 | 20.88898 | -102.81781 | 29785 ft | 453 kts | 230° |
| 2026-05-09 05:00 | 20.84994 | -102.87078 | 29783 ft | 453 kts | 230° |
| 2026-05-09 05:01 | 20.81097 | -102.92355 | 29774 ft | 453 kts | 230° |
| 2026-05-09 05:01 | 20.77190 | -102.97642 | 29775 ft | 453 kts | 230° |
| 2026-05-09 05:02 | 20.73937 | -103.02041 | 29785 ft | 453 kts | 230° |
| 2026-05-09 05:02 | 20.70003 | -103.07358 | 30067 ft | 454 kts | 230° |
| 2026-05-09 05:02 | 20.68046 | -103.09999 | 29923 ft | 453 kts | 230° |
| 2026-05-09 05:03 | 20.66113 | -103.12610 | 29954 ft | 453 kts | 230° |
| 2026-05-09 05:03 | 20.62197 | -103.17891 | 30056 ft | 454 kts | 230° |
| 2026-05-09 05:04 | 20.58276 | -103.23175 | 30130 ft | 454 kts | 230° |
| 2026-05-09 05:04 | 20.54353 | -103.28456 | 30138 ft | 454 kts | 230° |
| 2026-05-09 05:05 | 20.49987 | -103.33327 | 30136 ft | 453 kts | 220° |
| 2026-05-09 05:05 | 20.45263 | -103.37728 | 30151 ft | 454 kts | 220° |
| 2026-05-09 05:06 | 20.40466 | -103.42178 | 30063 ft | 454 kts | 220° |
| 2026-05-09 05:06 | 20.35731 | -103.46565 | 30002 ft | 455 kts | 220° |
| 2026-05-09 05:07 | 20.30955 | -103.50985 | 29913 ft | 455 kts | 220° |
| 2026-05-09 05:07 | 20.26173 | -103.55407 | 29854 ft | 455 kts | 220° |
| 2026-05-09 05:08 | 20.21390 | -103.59826 | 29841 ft | 455 kts | 220° |
| 2026-05-09 05:08 | 20.16610 | -103.64239 | 29853 ft | 455 kts | 220° |
| 2026-05-09 05:08 | 20.14226 | -103.66436 | 29492 ft | 450 kts | 220° |
| 2026-05-09 05:09 | 20.11869 | -103.68606 | 28765 ft | 448 kts | 220° |
| 2026-05-09 05:09 | 20.09506 | -103.70780 | 27908 ft | 450 kts | 220° |
| 2026-05-09 05:09 | 20.07138 | -103.72958 | 27147 ft | 451 kts | 220° |
| 2026-05-09 05:09 | 20.04751 | -103.75153 | 26378 ft | 453 kts | 220° |
| 2026-05-09 05:10 | 20.02328 | -103.77379 | 25599 ft | 456 kts | 220° |
| 2026-05-09 05:10 | 19.99929 | -103.79583 | 24853 ft | 456 kts | 220° |
| 2026-05-09 05:10 | 19.97556 | -103.81762 | 24119 ft | 456 kts | 220° |
| 2026-05-09 05:10 | 19.95139 | -103.83980 | 23362 ft | 454 kts | 220° |
| 2026-05-09 05:11 | 19.92780 | -103.86144 | 22513 ft | 452 kts | 220° |
| 2026-05-09 05:11 | 19.90403 | -103.88324 | 21774 ft | 448 kts | 220° |
| 2026-05-09 05:11 | 19.88058 | -103.90475 | 21075 ft | 444 kts | 220° |
| 2026-05-09 05:11 | 19.85730 | -103.92607 | 20366 ft | 440 kts | 220° |
| 2026-05-09 05:12 | 19.83419 | -103.94724 | 19633 ft | 437 kts | 220° |
| 2026-05-09 05:12 | 19.81126 | -103.96825 | 18926 ft | 435 kts | 220° |
| 2026-05-09 05:12 | 19.78841 | -103.98918 | 18282 ft | 431 kts | 219° |
| 2026-05-09 05:12 | 19.76581 | -104.00986 | 17512 ft | 428 kts | 219° |
| 2026-05-09 05:13 | 19.74338 | -104.03040 | 16809 ft | 424 kts | 219° |
| 2026-05-09 05:13 | 19.72117 | -104.05072 | 16182 ft | 418 kts | 219° |
| 2026-05-09 05:13 | 19.69952 | -104.07051 | 15857 ft | 405 kts | 219° |
| 2026-05-09 05:13 | 19.67830 | -104.08992 | 15331 ft | 400 kts | 219° |
| 2026-05-09 05:14 | 19.65737 | -104.10906 | 14866 ft | 393 kts | 219° |
| 2026-05-09 05:14 | 19.63679 | -104.12786 | 14401 ft | 388 kts | 219° |
| 2026-05-09 05:14 | 19.61650 | -104.14640 | 13949 ft | 383 kts | 218° |
| 2026-05-09 05:14 | 19.59670 | -104.16449 | 13479 ft | 378 kts | 218° |
| 2026-05-09 05:15 | 19.57662 | -104.18282 | 12993 ft | 373 kts | 219° |
| 2026-05-09 05:15 | 19.55718 | -104.20057 | 12541 ft | 367 kts | 219° |
| 2026-05-09 05:15 | 19.53789 | -104.21818 | 12109 ft | 362 kts | 219° |
| 2026-05-09 05:15 | 19.51902 | -104.23538 | 11758 ft | 353 kts | 219° |
| 2026-05-09 05:16 | 19.50085 | -104.25195 | 11462 ft | 344 kts | 219° |
| 2026-05-09 05:16 | 19.48294 | -104.26828 | 11196 ft | 336 kts | 219° |
| 2026-05-09 05:16 | 19.46544 | -104.28423 | 10920 ft | 328 kts | 219° |
| 2026-05-09 05:16 | 19.44822 | -104.29991 | 10550 ft | 324 kts | 219° |
| 2026-05-09 05:17 | 19.43119 | -104.31534 | 10192 ft | 319 kts | 217° |
| 2026-05-09 05:17 | 19.41183 | -104.32620 | 9792 ft | 314 kts | 194° |
| 2026-05-09 05:17 | 19.39053 | -104.32877 | 9464 ft | 301 kts | 184° |
| 2026-05-09 05:17 | 19.37130 | -104.33502 | 9180 ft | 283 kts | 213° |
| 2026-05-09 05:18 | 19.35773 | -104.34911 | 8979 ft | 265 kts | 226° |
| 2026-05-09 05:18 | 19.34324 | -104.35966 | 8700 ft | 248 kts | 195° |
| 2026-05-09 05:18 | 19.32682 | -104.35913 | 8458 ft | 233 kts | 157° |
| 2026-05-09 05:18 | 19.31384 | -104.34970 | 8286 ft | 224 kts | 141° |
| 2026-05-09 05:19 | 19.30175 | -104.33974 | 8083 ft | 217 kts | 143° |
| 2026-05-09 05:19 | 19.28959 | -104.33059 | 7858 ft | 212 kts | 148° |
| 2026-05-09 05:19 | 19.27695 | -104.32280 | 7627 ft | 211 kts | 152° |
| 2026-05-09 05:19 | 19.26377 | -104.31575 | 7408 ft | 213 kts | 155° |
| 2026-05-09 05:20 | 19.24994 | -104.30933 | 7193 ft | 215 kts | 158° |
| 2026-05-09 05:20 | 19.23593 | -104.30378 | 6969 ft | 216 kts | 161° |
| 2026-05-09 05:20 | 19.22162 | -104.29906 | 6744 ft | 216 kts | 165° |
| 2026-05-09 05:20 | 19.20704 | -104.29519 | 6517 ft | 215 kts | 168° |
| 2026-05-09 05:21 | 19.19254 | -104.29221 | 6280 ft | 215 kts | 171° |
| 2026-05-09 05:21 | 19.17778 | -104.29008 | 6013 ft | 214 kts | 174° |
| 2026-05-09 05:21 | 19.16297 | -104.28883 | 5765 ft | 212 kts | 178° |
| 2026-05-09 05:21 | 19.14829 | -104.28846 | 5542 ft | 210 kts | 181° |
| 2026-05-09 05:22 | 19.13380 | -104.28893 | 5322 ft | 206 kts | 184° |
| 2026-05-09 05:22 | 19.11981 | -104.29020 | 5119 ft | 198 kts | 187° |
| 2026-05-09 05:22 | 19.10625 | -104.29220 | 4916 ft | 196 kts | 190° |
| 2026-05-09 05:22 | 19.09300 | -104.29536 | 4705 ft | 194 kts | 200° |
| 2026-05-09 05:23 | 19.08206 | -104.30317 | 4479 ft | 190 kts | 232° |
| 2026-05-09 05:23 | 19.07652 | -104.31540 | 4302 ft | 181 kts | 260° |
| 2026-05-09 05:23 | 19.07676 | -104.32820 | 4137 ft | 166 kts | 281° |
| 2026-05-09 05:23 | 19.07897 | -104.33972 | 3945 ft | 157 kts | 283° |
| 2026-05-09 05:24 | 19.08157 | -104.35085 | 3756 ft | 154 kts | 286° |
| 2026-05-09 05:24 | 19.08469 | -104.36168 | 3593 ft | 154 kts | 288° |
| 2026-05-09 05:24 | 19.08800 | -104.37244 | 3428 ft | 154 kts | 288° |
| 2026-05-09 05:24 | 19.09132 | -104.38318 | 3287 ft | 154 kts | 288° |
| 2026-05-09 05:25 | 19.09474 | -104.39390 | 3116 ft | 154 kts | 291° |
| 2026-05-09 05:25 | 19.09886 | -104.40436 | 2973 ft | 156 kts | 291° |
| 2026-05-09 05:25 | 19.10720 | -104.42522 | 2650 ft | 153 kts | 290° |
| 2026-05-09 05:26 | 19.11075 | -104.43582 | 2422 ft | 154 kts | 289° |
| 2026-05-09 05:26 | 19.11421 | -104.44652 | 2110 ft | 153 kts | 288° |
| 2026-05-09 05:26 | 19.11739 | -104.45731 | 1700 ft | 153 kts | 286° |
| 2026-05-09 05:26 | 19.12027 | -104.46795 | 1374 ft | 146 kts | 286° |
| 2026-05-09 05:27 | 19.12291 | -104.47843 | 1166 ft | 152 kts | 286° |
| 2026-05-09 05:27 | 19.12596 | -104.48917 | 1111 ft | 153 kts | 289° |
| 2026-05-09 05:27 | 19.12883 | -104.49994 | 995 ft | 151 kts | 284° |
| 2026-05-09 05:27 | 19.13156 | -104.51060 | 786 ft | 148 kts | 286° |
| 2026-05-09 05:28 | 19.13439 | -104.52077 | 521 ft | 145 kts | 285° |
| 2026-05-09 05:28 | 19.13720 | -104.53114 | 365 ft | 148 kts | 287° |
| 2026-05-09 05:28 | 19.14001 | -104.54143 | 134 ft | 146 kts | 287° |
| 2026-05-09 05:28 | 19.14289 | -104.55181 | -18 ft | 146 kts | 286° |
| 2026-05-09 05:29 | 19.14543 | -104.56096 | -30 ft | 102 kts | 287° |
| 2026-05-09 05:29 | 19.14673 | -104.56581 | -32 ft | 39 kts | 289° |
| 2026-05-09 05:29 | 19.14775 | -104.56786 | -31 ft | 21 kts | 310° |
| 2026-05-09 05:29 | 19.14747 | -104.56822 | -29 ft | 7 kts | 136° |
| 2026-05-09 05:30 | 19.14720 | -104.56756 | -30 ft | 13 kts | 105° |
| 2026-05-09 05:30 | 19.14694 | -104.56662 | -31 ft | 16 kts | 107° |
| 2026-05-09 05:30 | 19.14663 | -104.56550 | -32 ft | 17 kts | 105° |
| 2026-05-09 05:30 | 19.14645 | -104.56482 | -30 ft | 1 kts | 104° |
| 2026-05-09 05:31 | 19.14642 | -104.56457 | -29 ft | 6 kts | 90° |
| 2026-05-09 05:31 | 19.14650 | -104.56398 | -29 ft | 9 kts | 78° |
| 2026-05-09 05:31 | 19.14664 | -104.56335 | -27 ft | 8 kts | 75° |
| 2026-05-09 05:31 | 19.14672 | -104.56303 | -26 ft | 0 kts | 75° |
| 2026-05-09 05:34 | 19.14676 | -104.56286 | -25 ft | 8 kts | 75° |
| 2026-05-09 05:34 | 19.14698 | -104.56197 | -24 ft | 12 kts | 76° |
| 2026-05-09 05:34 | 19.14709 | -104.56124 | -24 ft | 10 kts | 92° |
| 2026-05-09 05:34 | 19.14711 | -104.56060 | -22 ft | 9 kts | 46° |
| 2026-05-09 05:35 | 19.14745 | -104.56045 | -25 ft | 1 kts | 15° |
| 2026-05-09 05:35 | 19.14749 | -104.56043 | -25 ft | 0 kts | 18° |